Time;durP1;ratioP1;P1;durP2;ratioP2;P2;SDS_P1;SDS_P2;PMS_P1;PMS_P2;Temp;Humidity;BMP_temperature;BMP_pressure;BME280_temperature;BME280_humidity;BME280_pressure;Samples;Min_cycle;Max_cycle;Signal;HPM_P1;HPM_P2
2023/07/09 00:02:09;;;;;;;;;;;;;;;;;;5035912;27;99953;-76
2023/07/09 00:04:36;;;;;;;11.05;7.55;;;;;;;;;;5048205;27;123083;-76
2023/07/09 00:07:03;;;;;;;8.75;6.30;;;;;;;;;;5049945;27;99639;-76
2023/07/09 00:09:31;;;;;;;9.43;6.95;;;;;;;;;;5048781;27;99115;-76
2023/07/09 00:11:57;;;;;;;11.48;8.65;;;;;;;;;;5049228;27;98171;-76
2023/07/09 00:14:24;;;;;;;10.88;8.27;;;;;;;;;;5049736;27;99374;-76
2023/07/09 00:16:50;;;;;;;11.75;8.23;;;;;;;;;;5047968;27;100002;-76
2023/07/09 00:19:18;;;;;;;10.02;7.43;;;;;;;;;;5052335;27;98726;-76
2023/07/09 00:21:46;;;;;;;11.02;8.10;;;;;;;;;;5049369;27;99829;-76
2023/07/09 00:24:12;;;;;;;14.63;8.70;;;;;;;;;;5048963;27;98210;-75
2023/07/09 00:26:40;;;;;;;9.00;8.07;;;;;;;;;;5049292;27;99054;-75
2023/07/09 00:29:08;;;;;;;15.93;7.90;;;;;;;;;;5049361;27;98875;-76
2023/07/09 00:31:38;;;;;;;12.00;8.68;;;;;;;;;;5048683;27;98306;-77
2023/07/09 00:34:05;;;;;;;10.02;8.10;;;;;;;;;;5049802;27;98747;-76
2023/07/09 00:36:32;;;;;;;11.43;8.75;;;;;;;;;;5048748;27;98708;-77
2023/07/09 00:39:04;;;;;;;14.85;9.13;;;;;;;;;;5048856;27;98490;-77
2023/07/09 00:41:33;;;;;;;9.98;8.98;;;;;;;;;;5053626;27;99461;-77
2023/07/09 00:44:19;;;;;;;12.80;9.40;;;;;;;;;;5049818;27;98131;-77
2023/07/09 00:46:49;;;;;;;11.38;8.32;;;;;;;;;;5046903;27;100578;-77
2023/07/09 00:49:26;;;;;;;10.30;9.05;;;;;;;;;;5049282;27;100022;-75
2023/07/09 00:51:53;;;;;;;16.75;9.65;;;;;;;;;;5048480;27;98023;-76
2023/07/09 00:54:23;;;;;;;19.88;10.38;;;;;;;;;;5049178;27;99119;-77
2023/07/09 00:56:52;;;;;;;18.38;10.43;;;;;;;;;;5048959;27;98824;-77
2023/07/09 00:59:21;;;;;;;17.63;11.00;;;;;;;;;;5048573;27;98267;-77
2023/07/09 01:01:50;;;;;;;19.55;11.10;;;;;;;;;;5048090;27;101031;-77
2023/07/09 01:04:21;;;;;;;13.80;11.65;;;;;;;;;;5052638;27;99348;-76
2023/07/09 01:06:50;;;;;;;14.18;11.13;;;;;;;;;;5048448;27;98253;-77
2023/07/09 01:09:18;;;;;;;17.88;12.35;;;;;;;;;;5047045;27;100088;-76
2023/07/09 01:11:44;;;;;;;19.15;11.82;;;;;;;;;;5048668;27;98174;-76
2023/07/09 01:14:14;;;;;;;17.42;11.93;;;;;;;;;;5047360;27;98771;-77
2023/07/09 01:16:43;;;;;;;11.32;10.25;;;;;;;;;;5047651;27;99151;-77
2023/07/09 01:19:09;;;;;;;13.57;10.82;;;;;;;;;;5048044;27;98339;-77
2023/07/09 01:21:36;;;;;;;26.05;11.45;;;;;;;;;;5045973;27;100196;-76
2023/07/09 01:24:14;;;;;;;18.42;10.93;;;;;;;;;;5040540;27;98765;-77
2023/07/09 01:26:40;;;;;;;17.85;11.65;;;;;;;;;;5033552;27;98126;-77
2023/07/09 01:29:07;;;;;;;15.43;10.90;;;;;;;;;;5046933;27;100096;-77
2023/07/09 01:31:35;;;;;;;11.70;10.50;;;;;;;;;;5048610;27;98167;-78
2023/07/09 01:34:02;;;;;;;14.18;10.85;;;;;;;;;;5046490;27;100575;-77
2023/07/09 01:36:28;;;;;;;15.82;10.68;;;;;;;;;;5047628;27;98822;-77
2023/07/09 01:38:55;;;;;;;15.15;10.80;;;;;;;;;;5047603;27;98287;-77
2023/07/09 01:41:22;;;;;;;16.73;10.18;;;;;;;;;;5048216;27;98395;-77
2023/07/09 01:43:50;;;;;;;12.48;10.45;;;;;;;;;;5047054;27;100107;-77
2023/07/09 01:46:16;;;;;;;16.90;9.07;;;;;;;;;;5048933;27;98159;-76
2023/07/09 01:48:44;;;;;;;16.52;10.30;;;;;;;;;;5053227;27;99381;-77
2023/07/09 01:51:13;;;;;;;11.43;9.50;;;;;;;;;;5052420;27;98217;-76
2023/07/09 01:53:40;;;;;;;14.00;11.88;;;;;;;;;;5051862;27;98392;-77
2023/07/09 01:56:07;;;;;;;14.68;10.00;;;;;;;;;;5050382;27;99366;-76
2023/07/09 01:58:34;;;;;;;11.48;9.50;;;;;;;;;;5044855;27;98407;-77
2023/07/09 02:01:01;;;;;;;12.52;10.18;;;;;;;;;;5046171;27;98615;-77
2023/07/09 02:03:28;;;;;;;15.88;9.95;;;;;;;;;;5050762;27;98907;-77
2023/07/09 02:05:55;;;;;;;19.88;10.45;;;;;;;;;;5052265;27;98162;-77
2023/07/09 02:08:22;;;;;;;12.20;9.48;;;;;;;;;;5052059;27;98338;-77
2023/07/09 02:10:50;;;;;;;12.82;10.05;;;;;;;;;;5053341;27;98409;-77
2023/07/09 02:13:17;;;;;;;15.38;10.85;;;;;;;;;;5052172;27;98626;-77
2023/07/09 02:15:44;;;;;;;14.25;10.98;;;;;;;;;;5049539;27;101087;-76
2023/07/09 02:18:11;;;;;;;17.33;10.43;;;;;;;;;;5049314;27;98305;-76
2023/07/09 02:20:38;;;;;;;14.75;11.18;;;;;;;;;;5050218;27;98639;-77
2023/07/09 02:23:06;;;;;;;11.30;10.18;;;;;;;;;;5049369;27;100346;-77
2023/07/09 02:25:33;;;;;;;14.27;10.48;;;;;;;;;;5050876;27;98314;-77
2023/07/09 02:28:01;;;;;;;20.30;10.32;;;;;;;;;;5053566;27;98403;-76
2023/07/09 02:30:27;;;;;;;14.18;10.25;;;;;;;;;;5058444;27;101518;-78
2023/07/09 02:32:54;;;;;;;18.10;10.90;;;;;;;;;;5059367;27;98384;-76
2023/07/09 02:35:21;;;;;;;13.88;10.82;;;;;;;;;;5053688;27;98103;-77
2023/07/09 02:37:49;;;;;;;11.77;10.40;;;;;;;;;;5050493;27;98238;-77
2023/07/09 02:40:16;;;;;;;15.75;10.48;;;;;;;;;;5051666;27;98522;-77
2023/07/09 02:42:43;;;;;;;13.18;10.38;;;;;;;;;;5049403;27;99917;-75
2023/07/09 02:45:10;;;;;;;16.45;10.77;;;;;;;;;;5050586;27;98198;-76
2023/07/09 02:47:37;;;;;;;13.85;10.07;;;;;;;;;;5049182;27;98884;-76
2023/07/09 02:50:04;;;;;;;18.35;10.43;;;;;;;;;;5066882;27;100212;-76
2023/07/09 02:52:31;;;;;;;15.77;10.60;;;;;;;;;;5050900;27;98703;-76
2023/07/09 02:54:57;;;;;;;17.88;12.55;;;;;;;;;;5049720;27;101315;-76
2023/07/09 02:57:24;;;;;;;19.15;9.65;;;;;;;;;;5050345;27;98959;-75
2023/07/09 02:59:50;;;;;;;12.95;9.70;;;;;;;;;;5049736;27;98884;-77
2023/07/09 03:02:17;;;;;;;16.58;9.80;;;;;;;;;;5049664;27;98919;-76
2023/07/09 03:04:44;;;;;;;16.48;9.32;;;;;;;;;;5049716;27;98315;-77
2023/07/09 03:07:10;;;;;;;10.70;9.05;;;;;;;;;;5048754;27;101278;-78
2023/07/09 03:09:37;;;;;;;18.17;9.93;;;;;;;;;;5048702;27;99122;-75
2023/07/09 03:12:03;;;;;;;10.85;9.43;;;;;;;;;;5048629;27;98338;-77
2023/07/09 03:14:30;;;;;;;10.65;9.05;;;;;;;;;;5051502;27;100911;-76
2023/07/09 03:16:56;;;;;;;9.93;8.93;;;;;;;;;;5049476;27;98238;-76
2023/07/09 03:19:23;;;;;;;13.40;9.65;;;;;;;;;;5050266;27;98647;-76
2023/07/09 03:21:49;;;;;;;13.48;9.70;;;;;;;;;;5048296;27;100421;-76
2023/07/09 03:24:18;;;;;;;16.75;9.40;;;;;;;;;;5045231;27;99784;-77
2023/07/09 03:26:46;;;;;;;13.02;9.57;;;;;;;;;;5039725;27;98343;-77
2023/07/09 03:29:13;;;;;;;15.25;9.48;;;;;;;;;;5050816;27;98731;-77
2023/07/09 03:31:39;;;;;;;13.35;9.40;;;;;;;;;;5047673;27;98255;-77
2023/07/09 03:34:08;;;;;;;15.65;10.02;;;;;;;;;;5049504;27;98645;-76
2023/07/09 03:36:37;;;;;;;15.93;9.80;;;;;;;;;;5052552;27;98993;-77
2023/07/09 03:39:04;;;;;;;15.38;9.32;;;;;;;;;;5050484;27;99552;-75
2023/07/09 03:41:30;;;;;;;12.98;9.43;;;;;;;;;;5048437;27;98817;-77
2023/07/09 03:43:57;;;;;;;15.70;9.35;;;;;;;;;;5050174;27;98258;-76
2023/07/09 03:46:23;;;;;;;18.25;10.10;;;;;;;;;;5049772;27;98553;-76
2023/07/09 03:48:50;;;;;;;12.27;9.07;;;;;;;;;;5049309;27;99906;-76
2023/07/09 03:51:17;;;;;;;12.48;10.35;;;;;;;;;;5050347;27;98448;-76
2023/07/09 03:53:43;;;;;;;13.70;9.45;;;;;;;;;;5050136;27;98550;-77
2023/07/09 03:56:10;;;;;;;14.02;9.52;;;;;;;;;;5049314;27;99699;-77
2023/07/09 03:58:36;;;;;;;16.85;9.65;;;;;;;;;;5051232;27;98231;-76
2023/07/09 04:01:03;;;;;;;14.75;9.57;;;;;;;;;;5047110;27;98939;-76
2023/07/09 04:03:30;;;;;;;10.68;9.55;;;;;;;;;;5050488;27;98197;-76
2023/07/09 04:05:56;;;;;;;12.82;9.10;;;;;;;;;;5050427;27;98561;-76
2023/07/09 04:08:23;;;;;;;14.73;9.65;;;;;;;;;;5049880;27;100067;-76
2023/07/09 04:10:49;;;;;;;15.63;9.95;;;;;;;;;;5046899;27;98259;-76
2023/07/09 04:13:16;;;;;;;12.38;8.20;;;;;;;;;;5049861;27;100058;-76
2023/07/09 04:15:43;;;;;;;12.00;8.35;;;;;;;;;;5049244;27;99854;-76
2023/07/09 04:18:10;;;;;;;18.73;10.05;;;;;;;;;;5051151;27;98197;-77
2023/07/09 04:20:37;;;;;;;13.48;9.15;;;;;;;;;;5049197;27;100031;-77
2023/07/09 04:23:06;;;;;;;12.93;8.98;;;;;;;;;;5049161;27;98252;-76
2023/07/09 04:25:32;;;;;;;19.60;9.20;;;;;;;;;;5048469;27;99405;-77
2023/07/09 04:27:59;;;;;;;10.98;9.15;;;;;;;;;;5049557;27;98968;-77
2023/07/09 04:30:26;;;;;;;14.30;8.43;;;;;;;;;;5049009;27;98213;-77
2023/07/09 04:32:53;;;;;;;11.57;9.00;;;;;;;;;;5049516;27;99773;-76
2023/07/09 04:35:19;;;;;;;18.65;9.30;;;;;;;;;;5049201;27;99961;-76
2023/07/09 04:37:46;;;;;;;11.57;8.40;;;;;;;;;;5048191;27;98315;-76
2023/07/09 04:40:13;;;;;;;10.35;8.77;;;;;;;;;;5052811;27;98462;-76
2023/07/09 04:42:40;;;;;;;11.45;9.05;;;;;;;;;;5049407;27;98012;-75
2023/07/09 04:45:09;;;;;;;13.75;8.85;;;;;;;;;;5048734;27;99698;-76
2023/07/09 04:47:36;;;;;;;13.18;8.80;;;;;;;;;;5048849;27;100170;-76
2023/07/09 04:50:03;;;;;;;16.20;9.13;;;;;;;;;;5047367;27;98157;-76
2023/07/09 04:52:30;;;;;;;13.50;9.48;;;;;;;;;;5047881;27;98501;-77
2023/07/09 04:54:57;;;;;;;14.40;9.43;;;;;;;;;;5048764;27;98959;-76
2023/07/09 04:57:24;;;;;;;11.65;8.27;;;;;;;;;;5049293;27;98169;-76
2023/07/09 04:59:51;;;;;;;12.88;9.15;;;;;;;;;;5048129;27;99435;-76
2023/07/09 05:02:17;;;;;;;12.98;9.15;;;;;;;;;;5052659;27;99197;-76
2023/07/09 05:04:44;;;;;;;11.90;9.15;;;;;;;;;;5048372;27;98326;-76
2023/07/09 05:07:10;;;;;;;15.98;10.60;;;;;;;;;;5048346;27;98910;-76
2023/07/09 05:09:36;;;;;;;13.75;9.70;;;;;;;;;;5048620;27;98375;-76
2023/07/09 05:12:03;;;;;;;11.45;9.65;;;;;;;;;;5049624;27;99384;-77
2023/07/09 05:14:30;;;;;;;14.32;10.30;;;;;;;;;;5048823;27;99089;-77
2023/07/09 05:16:56;;;;;;;20.08;9.68;;;;;;;;;;5050408;27;98210;-76
2023/07/09 05:19:22;;;;;;;14.57;9.82;;;;;;;;;;5055896;27;99680;-77
2023/07/09 05:21:49;;;;;;;12.27;9.98;;;;;;;;;;5056516;27;98868;-77
2023/07/09 05:24:15;;;;;;;15.02;10.25;;;;;;;;;;5055958;27;98296;-76
2023/07/09 05:26:42;;;;;;;16.27;11.75;;;;;;;;;;5035662;27;100547;-76
2023/07/09 05:29:08;;;;;;;13.95;10.10;;;;;;;;;;5032279;28;98242;-76
2023/07/09 05:31:36;;;;;;;10.98;9.15;;;;;;;;;;5032359;27;98445;-77
2023/07/09 05:34:02;;;;;;;15.85;10.73;;;;;;;;;;5030870;27;100011;-77
2023/07/09 05:36:29;;;;;;;17.92;10.23;;;;;;;;;;5036597;27;98201;-77
2023/07/09 05:38:57;;;;;;;13.85;9.13;;;;;;;;;;5051611;27;99371;-77
2023/07/09 05:41:23;;;;;;;13.45;9.65;;;;;;;;;;5051358;27;100093;-77
2023/07/09 05:43:51;;;;;;;14.45;10.40;;;;;;;;;;5051839;27;98343;-77
2023/07/09 05:46:18;;;;;;;13.38;9.73;;;;;;;;;;5055044;27;98443;-77
2023/07/09 05:48:44;;;;;;;13.23;11.63;;;;;;;;;;5050609;27;98199;-77
2023/07/09 05:51:11;;;;;;;11.30;9.80;;;;;;;;;;5052047;27;99776;-76
2023/07/09 05:53:38;;;;;;;11.13;9.95;;;;;;;;;;5052519;27;98921;-77
2023/07/09 05:56:04;;;;;;;14.35;9.93;;;;;;;;;;5051096;27;98323;-77
2023/07/09 05:58:31;;;;;;;11.85;9.90;;;;;;;;;;5051441;27;98425;-77
2023/07/09 06:00:58;;;;;;;11.27;9.45;;;;;;;;;;5042805;27;98895;-78
2023/07/09 06:03:25;;;;;;;11.23;9.38;;;;;;;;;;5058302;27;98351;-77
2023/07/09 06:05:54;;;;;;;16.20;9.55;;;;;;;;;;5052092;27;99376;-78
2023/07/09 06:08:20;;;;;;;14.88;10.48;;;;;;;;;;5055136;27;99870;-78
2023/07/09 06:10:52;;;;;;;13.98;9.40;;;;;;;;;;5048505;27;99905;-78
2023/07/09 06:13:20;;;;;;;12.35;10.75;;;;;;;;;;5051091;27;98977;-76
2023/07/09 06:15:48;;;;;;;15.57;9.73;;;;;;;;;;5048764;27;99792;-75
2023/07/09 06:18:14;;;;;;;10.98;9.65;;;;;;;;;;5050872;27;99368;-74
2023/07/09 06:20:41;;;;;;;10.00;9.00;;;;;;;;;;5051049;27;99053;-72
2023/07/09 06:23:08;;;;;;;7.75;6.95;;;;;;;;;;5050312;27;98269;-73
2023/07/09 06:25:37;;;;;;;13.52;9.32;;;;;;;;;;5049124;27;100575;-73
2023/07/09 06:28:04;;;;;;;11.65;8.60;;;;;;;;;;5051186;27;99075;-72
2023/07/09 06:30:30;;;;;;;13.05;9.55;;;;;;;;;;5050102;27;98517;-74
2023/07/09 06:32:57;;;;;;;10.77;9.52;;;;;;;;;;5050419;27;98401;-75
2023/07/09 06:35:23;;;;;;;11.52;9.73;;;;;;;;;;5051373;27;98242;-75
2023/07/09 06:37:49;;;;;;;17.58;10.55;;;;;;;;;;5049993;27;98761;-78
2023/07/09 06:40:17;;;;;;;15.30;10.57;;;;;;;;;;5049443;27;98990;-77
2023/07/09 06:42:44;;;;;;;14.60;10.05;;;;;;;;;;5048662;27;98258;-78
2023/07/09 06:45:23;;;;;;;18.63;9.70;;;;;;;;;;5047347;27;100854;-78
2023/07/09 06:47:51;;;;;;;10.95;9.50;;;;;;;;;;5038710;27;99438;-77
2023/07/09 06:50:17;;;;;;;15.98;10.30;;;;;;;;;;5053410;27;98196;-76
2023/07/09 06:52:44;;;;;;;15.00;10.40;;;;;;;;;;5047728;27;98982;-78
2023/07/09 06:55:11;;;;;;;13.70;9.82;;;;;;;;;;5049983;27;98334;-77
2023/07/09 06:57:37;;;;;;;14.07;10.63;;;;;;;;;;5049647;27;98399;-78
2023/07/09 07:00:06;;;;;;;14.93;9.82;;;;;;;;;;5049139;27;99038;-77
2023/07/09 07:02:33;;;;;;;14.18;11.02;;;;;;;;;;5050865;27;98230;-77
2023/07/09 07:05:00;;;;;;;12.68;10.02;;;;;;;;;;5042193;27;99522;-77
2023/07/09 07:07:26;;;;;;;12.15;10.10;;;;;;;;;;5032679;27;100148;-78
2023/07/09 07:09:53;;;;;;;14.13;9.45;;;;;;;;;;5035021;27;98331;-78
2023/07/09 07:12:29;;;;;;;13.82;9.88;;;;;;;;;;5053421;27;99457;-78
2023/07/09 07:14:55;;;;;;;13.55;9.20;;;;;;;;;;5048490;27;98149;-77
2023/07/09 07:17:22;;;;;;;14.20;8.43;;;;;;;;;;5046911;27;99576;-77
2023/07/09 07:19:49;;;;;;;11.98;9.05;;;;;;;;;;5047408;27;98950;-77
2023/07/09 07:22:16;;;;;;;12.05;9.05;;;;;;;;;;5049313;27;98258;-79
2023/07/09 07:24:44;;;;;;;11.63;8.90;;;;;;;;;;5050359;27;99399;-77
2023/07/09 07:27:10;;;;;;;13.48;9.35;;;;;;;;;;5049111;27;100226;-79
2023/07/09 07:29:36;;;;;;;14.60;9.23;;;;;;;;;;5046582;27;98254;-78
2023/07/09 07:32:03;;;;;;;10.63;9.45;;;;;;;;;;5044983;27;98573;-78
2023/07/09 07:34:30;;;;;;;12.23;8.98;;;;;;;;;;5045314;27;100256;-78
2023/07/09 07:36:56;;;;;;;17.20;9.63;;;;;;;;;;5043608;27;98587;-78
2023/07/09 07:39:23;;;;;;;15.77;9.30;;;;;;;;;;5047076;27;100983;-78
2023/07/09 07:41:50;;;;;;;10.00;8.70;;;;;;;;;;5065931;27;99038;-78
2023/07/09 07:44:17;;;;;;;11.85;9.05;;;;;;;;;;5070170;27;98495;-78
2023/07/09 07:46:44;;;;;;;17.77;9.27;;;;;;;;;;5054327;27;99169;-78
2023/07/09 07:49:12;;;;;;;10.93;9.02;;;;;;;;;;5046932;27;98927;-79
2023/07/09 07:51:39;;;;;;;10.55;8.27;;;;;;;;;;5048603;27;98829;-76
2023/07/09 07:54:06;;;;;;;10.82;8.85;;;;;;;;;;5048380;27;99223;-77
2023/07/09 07:56:32;;;;;;;12.15;8.43;;;;;;;;;;5045507;27;98967;-77
2023/07/09 07:58:59;;;;;;;17.02;9.13;;;;;;;;;;5044403;27;100363;-75
2023/07/09 08:01:26;;;;;;;14.40;8.75;;;;;;;;;;5040050;27;100032;-77
2023/07/09 08:03:53;;;;;;;13.95;8.20;;;;;;;;;;5051725;27;99522;-77
2023/07/09 08:06:19;;;;;;;11.18;8.45;;;;;;;;;;5051719;27;99018;-76
2023/07/09 08:08:46;;;;;;;13.27;8.60;;;;;;;;;;5046406;27;99637;-77
2023/07/09 08:11:14;;;;;;;13.15;8.48;;;;;;;;;;5049748;27;98715;-76
2023/07/09 08:13:41;;;;;;;10.30;7.43;;;;;;;;;;5045700;27;98830;-76
2023/07/09 08:16:11;;;;;;;11.05;7.45;;;;;;;;;;5031218;27;98253;-76
2023/07/09 08:18:37;;;;;;;12.18;7.60;;;;;;;;;;5049421;27;98757;-76
2023/07/09 08:21:05;;;;;;;13.32;7.30;;;;;;;;;;5045298;27;98340;-77
2023/07/09 08:23:34;;;;;;;8.48;6.93;;;;;;;;;;5046924;27;98417;-74
2023/07/09 08:26:02;;;;;;;11.88;6.72;;;;;;;;;;5047486;27;99666;-77
2023/07/09 08:28:31;;;;;;;12.70;5.90;;;;;;;;;;5048654;27;98336;-76
2023/07/09 08:30:58;;;;;;;15.20;6.28;;;;;;;;;;5047722;27;98526;-77
2023/07/09 08:33:25;;;;;;;13.43;6.20;;;;;;;;;;5051014;27;98885;-77
2023/07/09 08:35:52;;;;;;;14.82;6.50;;;;;;;;;;5051271;27;98282;-76
2023/07/09 08:38:18;;;;;;;7.05;5.43;;;;;;;;;;5052765;27;99030;-77
2023/07/09 08:40:59;;;;;;;7.20;6.43;;;;;;;;;;5048607;27;98263;-77
2023/07/09 08:43:39;;;;;;;8.50;6.65;;;;;;;;;;5049155;27;98596;-77
2023/07/09 08:46:29;;;;;;;12.03;7.03;;;;;;;;;;5048720;27;99334;-77
2023/07/09 08:48:55;;;;;;;8.25;7.45;;;;;;;;;;5040472;27;98406;-76
2023/07/09 08:51:27;;;;;;;9.40;6.78;;;;;;;;;;5047036;27;99600;-76
2023/07/09 08:53:56;;;;;;;9.25;6.90;;;;;;;;;;5049327;27;99264;-76
2023/07/09 08:56:23;;;;;;;7.45;6.47;;;;;;;;;;5049112;27;98340;-76
2023/07/09 08:58:50;;;;;;;10.57;7.63;;;;;;;;;;5051791;27;99436;-76
2023/07/09 09:01:18;;;;;;;9.13;7.05;;;;;;;;;;5055996;27;99397;-76
2023/07/09 09:03:47;;;;;;;9.77;7.38;;;;;;;;;;5052649;27;99357;-77
2023/07/09 09:06:15;;;;;;;7.50;6.90;;;;;;;;;;5039005;27;99064;-77
2023/07/09 09:08:44;;;;;;;7.47;6.40;;;;;;;;;;5032136;27;98237;-77
2023/07/09 09:11:21;;;;;;;8.57;6.78;;;;;;;;;;5032335;27;98500;-77
2023/07/09 09:13:48;;;;;;;8.50;7.80;;;;;;;;;;5032267;28;98882;-77
2023/07/09 09:16:32;;;;;;;10.57;8.70;;;;;;;;;;5032140;27;98193;-77
2023/07/09 09:19:00;;;;;;;9.50;7.60;;;;;;;;;;5031011;27;98783;-77
2023/07/09 09:21:34;;;;;;;11.25;7.88;;;;;;;;;;5034526;27;99065;-76
2023/07/09 09:24:00;;;;;;;;;;;;;;;;;;5035439;27;98229;-76
2023/07/09 09:26:30;;;;;;;7.65;6.18;;;;;;;;;;5030477;27;127325;-76
2023/07/09 09:28:56;;;;;;;10.73;6.65;;;;;;;;;;5031532;27;98382;-76
2023/07/09 09:31:26;;;;;;;14.35;7.70;;;;;;;;;;5032064;27;99533;-76
2023/07/09 09:33:52;;;;;;;11.25;7.00;;;;;;;;;;5030976;27;99257;-76
2023/07/09 09:36:23;;;;;;;8.93;6.85;;;;;;;;;;5031914;27;98242;-76
2023/07/09 09:38:52;;;;;;;7.82;6.75;;;;;;;;;;5050383;27;99436;-76
2023/07/09 09:41:20;;;;;;;16.42;7.80;;;;;;;;;;5031220;27;100146;-76
2023/07/09 09:43:48;;;;;;;10.93;8.77;;;;;;;;;;5041022;27;98309;-76
2023/07/09 09:46:17;;;;;;;13.27;9.23;;;;;;;;;;5054731;27;98564;-76
2023/07/09 09:48:44;;;;;;;11.18;9.55;;;;;;;;;;5050833;27;98303;-75
2023/07/09 09:51:12;;;;;;;12.68;9.15;;;;;;;;;;5051953;27;99447;-76
2023/07/09 09:53:39;;;;;;;11.85;8.77;;;;;;;;;;5050427;27;99200;-75
2023/07/09 09:56:11;;;;;;;13.40;9.25;;;;;;;;;;5051978;27;98580;-76
2023/07/09 09:58:39;;;;;;;13.57;8.65;;;;;;;;;;5051704;27;99155;-75
2023/07/09 10:01:12;;;;;;;10.07;7.43;;;;;;;;;;5045469;27;100054;-75
2023/07/09 10:03:40;;;;;;;12.48;7.85;;;;;;;;;;5034386;27;98288;-75
2023/07/09 10:06:19;;;;;;;13.25;8.50;;;;;;;;;;5030953;27;98536;-75
2023/07/09 10:08:51;;;;;;;7.97;7.18;;;;;;;;;;5032004;27;98929;-75
2023/07/09 10:11:21;;;;;;;8.05;6.72;;;;;;;;;;5030658;28;98614;-75
2023/07/09 10:13:49;;;;;;;13.27;7.68;;;;;;;;;;5030956;28;100046;-75
2023/07/09 10:16:16;;;;;;;7.53;6.75;;;;;;;;;;5030339;27;98312;-75
2023/07/09 10:19:04;;;;;;;8.80;7.80;;;;;;;;;;5031018;28;98329;-75
2023/07/09 10:21:54;;;;;;;10.85;8.30;;;;;;;;;;5030541;27;99191;-76
2023/07/09 10:24:39;;;;;;;16.88;8.27;;;;;;;;;;5042952;27;98324;-76
2023/07/09 10:27:08;;;;;;;13.15;8.57;;;;;;;;;;5051780;27;98721;-75
2023/07/09 10:29:53;;;;;;;12.68;8.57;;;;;;;;;;5050224;27;99273;-75
2023/07/09 10:32:39;;;;;;;13.68;8.80;;;;;;;;;;5054464;27;99256;-75
2023/07/09 10:35:11;;;;;;;17.23;8.40;;;;;;;;;;5037598;27;99079;-75
2023/07/09 10:37:53;;;;;;;10.18;8.45;;;;;;;;;;5050110;27;98211;-75
2023/07/09 10:40:29;;;;;;;10.73;6.70;;;;;;;;;;5038624;27;99438;-75
2023/07/09 10:42:57;;;;;;;15.13;8.30;;;;;;;;;;5031726;27;100266;-75
2023/07/09 10:45:45;;;;;;;10.45;8.18;;;;;;;;;;5031196;27;98002;-75
2023/07/09 10:48:19;;;;;;;11.70;8.15;;;;;;;;;;5037519;27;98703;-76
2023/07/09 10:50:54;;;;;;;8.73;7.65;;;;;;;;;;5042684;27;99877;-75
2023/07/09 10:53:28;;;;;;;8.10;7.28;;;;;;;;;;5054459;27;98090;-76
2023/07/09 10:56:00;;;;;;;8.07;7.32;;;;;;;;;;5050597;27;99054;-75
2023/07/09 10:58:48;;;;;;;10.45;8.20;;;;;;;;;;5048153;27;98264;-75
2023/07/09 11:01:18;;;;;;;11.43;7.68;;;;;;;;;;5046725;27;98692;-75
2023/07/09 11:03:54;;;;;;;10.18;7.93;;;;;;;;;;5045236;27;100343;-74
2023/07/09 11:06:36;;;;;;;9.20;8.05;;;;;;;;;;5046320;27;98433;-75
2023/07/09 11:09:04;;;;;;;12.50;8.65;;;;;;;;;;5049851;27;100870;-75
2023/07/09 11:11:37;;;;;;;13.30;8.88;;;;;;;;;;5048552;27;99906;-75
2023/07/09 11:14:10;;;;;;;8.60;7.78;;;;;;;;;;5047071;27;100206;-75
2023/07/09 11:16:44;;;;;;;13.20;8.93;;;;;;;;;;5052153;27;99996;-75
2023/07/09 11:19:14;;;;;;;11.52;8.40;;;;;;;;;;5047249;27;98782;-74
2023/07/09 11:21:44;;;;;;;13.43;8.60;;;;;;;;;;5047765;27;99429;-74
2023/07/09 11:24:27;;;;;;;11.55;8.63;;;;;;;;;;5049371;27;99245;-74
2023/07/09 11:26:59;;;;;;;9.25;7.55;;;;;;;;;;5040032;27;98704;-74
2023/07/09 11:29:27;;;;;;;11.20;8.13;;;;;;;;;;5039943;27;98785;-75
2023/07/09 11:31:53;;;;;;;9.57;8.50;;;;;;;;;;5050069;27;99063;-74
2023/07/09 11:34:26;;;;;;;11.88;8.90;;;;;;;;;;5047886;27;98179;-75
2023/07/09 11:36:55;;;;;;;11.00;8.00;;;;;;;;;;5048562;27;98677;-75
2023/07/09 11:39:32;;;;;;;8.60;6.97;;;;;;;;;;5049618;27;99590;-75
2023/07/09 11:42:01;;;;;;;7.78;6.90;;;;;;;;;;5050172;27;98266;-73
2023/07/09 11:44:29;;;;;;;9.50;6.97;;;;;;;;;;5046207;27;99001;-74
2023/07/09 11:47:07;;;;;;;12.27;6.72;;;;;;;;;;5048226;27;98122;-74
2023/07/09 11:49:58;;;;;;;9.20;7.68;;;;;;;;;;5039667;27;99975;-74
2023/07/09 11:52:27;;;;;;;12.63;6.73;;;;;;;;;;5032576;27;99830;-74
2023/07/09 11:54:55;;;;;;;8.27;6.85;;;;;;;;;;5048666;27;98313;-74
2023/07/09 11:57:22;;;;;;;8.43;7.22;;;;;;;;;;5048899;27;98805;-74
2023/07/09 11:59:51;;;;;;;16.05;7.05;;;;;;;;;;5049745;27;100301;-75
2023/07/09 12:02:21;;;;;;;7.70;6.85;;;;;;;;;;5049326;27;98277;-75
2023/07/09 12:04:52;;;;;;;7.53;6.40;;;;;;;;;;5032591;27;98896;-75
2023/07/09 12:07:26;;;;;;;8.90;5.95;;;;;;;;;;5028944;27;98270;-75
2023/07/09 12:09:53;;;;;;;13.32;6.25;;;;;;;;;;5043310;27;98404;-75
2023/07/09 12:12:26;;;;;;;7.05;6.32;;;;;;;;;;5037314;27;98868;-75
2023/07/09 12:14:53;;;;;;;7.65;6.57;;;;;;;;;;5048078;27;98300;-74
2023/07/09 12:17:23;;;;;;;8.93;5.78;;;;;;;;;;5049503;27;98994;-74
2023/07/09 12:19:51;;;;;;;6.55;5.32;;;;;;;;;;5049830;27;100493;-75
2023/07/09 12:22:20;;;;;;;8.60;5.57;;;;;;;;;;5034941;27;97946;-73
2023/07/09 12:24:48;;;;;;;7.20;4.68;;;;;;;;;;5038048;27;98971;-75
2023/07/09 12:27:18;;;;;;;7.80;5.30;;;;;;;;;;5048595;27;98339;-75
2023/07/09 12:29:44;;;;;;;6.90;5.53;;;;;;;;;;5048224;27;99556;-74
2023/07/09 12:32:17;;;;;;;6.47;5.50;;;;;;;;;;5046947;27;100071;-76
2023/07/09 12:34:49;;;;;;;12.63;5.90;;;;;;;;;;5046140;27;98245;-75
2023/07/09 12:37:20;;;;;;;6.47;5.50;;;;;;;;;;5049374;27;100431;-75
2023/07/09 12:39:51;;;;;;;5.63;5.15;;;;;;;;;;5049856;27;99096;-75
2023/07/09 12:42:30;;;;;;;4.93;4.45;;;;;;;;;;5047577;27;98399;-74
2023/07/09 12:44:59;;;;;;;6.38;4.97;;;;;;;;;;5045683;27;99894;-73
2023/07/09 12:47:27;;;;;;;6.18;4.95;;;;;;;;;;5050968;27;98845;-74
2023/07/09 12:50:03;;;;;;;4.93;4.50;;;;;;;;;;5048463;27;99638;-75
2023/07/09 12:52:30;;;;;;;9.07;4.50;;;;;;;;;;5048289;27;100193;-73
2023/07/09 12:55:02;;;;;;;5.05;4.50;;;;;;;;;;5042484;27;99452;-73
2023/07/09 12:57:39;;;;;;;9.90;4.88;;;;;;;;;;5045977;27;100765;-73
2023/07/09 13:00:14;;;;;;;7.80;5.57;;;;;;;;;;5047938;27;98943;-73
2023/07/09 13:02:42;;;;;;;9.50;5.75;;;;;;;;;;5051775;27;99408;-74
2023/07/09 13:05:21;;;;;;;10.60;5.00;;;;;;;;;;5046865;27;97996;-73
2023/07/09 13:07:51;;;;;;;11.18;4.55;;;;;;;;;;5043980;27;99336;-74
2023/07/09 13:10:18;;;;;;;12.43;4.93;;;;;;;;;;5028524;27;99615;-75
2023/07/09 13:12:46;;;;;;;7.05;5.30;;;;;;;;;;5048111;27;98959;-75
2023/07/09 13:15:24;;;;;;;5.40;4.72;;;;;;;;;;5049532;27;100163;-75
2023/07/09 13:17:56;;;;;;;9.95;6.03;;;;;;;;;;5049266;27;99985;-75
2023/07/09 13:20:24;;;;;;;4.97;4.47;;;;;;;;;;5048886;27;98832;-74
2023/07/09 13:22:50;;;;;;;6.38;4.30;;;;;;;;;;5045218;27;99822;-75
2023/07/09 13:25:17;;;;;;;3.78;3.47;;;;;;;;;;5045132;27;99537;-75
2023/07/09 13:27:58;;;;;;;7.80;4.13;;;;;;;;;;5032138;27;99693;-74
2023/07/09 13:30:25;;;;;;;5.15;4.43;;;;;;;;;;5044721;27;98390;-75
2023/07/09 13:32:51;;;;;;;4.57;4.18;;;;;;;;;;5045784;27;99410;-76
2023/07/09 13:35:18;;;;;;;6.45;4.40;;;;;;;;;;5047330;27;98299;-75
2023/07/09 13:37:45;;;;;;;5.50;3.80;;;;;;;;;;5046900;27;98691;-75
2023/07/09 13:40:13;;;;;;;4.32;3.92;;;;;;;;;;5047309;27;99306;-75
2023/07/09 13:42:41;;;;;;;5.13;4.63;;;;;;;;;;5049109;27;98282;-75
2023/07/09 13:45:18;;;;;;;4.30;3.92;;;;;;;;;;5046934;27;98995;-75
2023/07/09 13:47:45;;;;;;;6.10;4.00;;;;;;;;;;5049256;27;99122;-76
2023/07/09 13:50:14;;;;;;;6.43;4.60;;;;;;;;;;5050102;27;98411;-74
2023/07/09 13:52:40;;;;;;;5.22;3.95;;;;;;;;;;5051471;27;99672;-74
2023/07/09 13:55:14;;;;;;;4.82;4.05;;;;;;;;;;5051217;27;98330;-74
2023/07/09 13:57:41;;;;;;;4.15;3.85;;;;;;;;;;5051540;27;99120;-74
2023/07/09 14:00:08;;;;;;;5.00;4.22;;;;;;;;;;5049047;27;100102;-74
2023/07/09 14:02:34;;;;;;;4.60;3.95;;;;;;;;;;5050200;27;98275;-75
2023/07/09 14:05:03;;;;;;;3.58;3.25;;;;;;;;;;5047047;27;98581;-75
2023/07/09 14:07:34;;;;;;;5.25;3.28;;;;;;;;;;5049002;27;98985;-74
2023/07/09 14:10:01;;;;;;;7.57;2.90;;;;;;;;;;5035936;27;98218;-75
2023/07/09 14:12:29;;;;;;;5.95;2.60;;;;;;;;;;5049030;27;98851;-75
2023/07/09 14:14:57;;;;;;;7.70;2.85;;;;;;;;;;5052157;27;98939;-75
2023/07/09 14:17:25;;;;;;;5.78;2.88;;;;;;;;;;5050430;27;99479;-76
2023/07/09 14:19:54;;;;;;;8.27;2.97;;;;;;;;;;5049430;27;101270;-74
2023/07/09 14:22:23;;;;;;;6.22;3.30;;;;;;;;;;5049952;27;99443;-75
2023/07/09 14:24:49;;;;;;;8.27;3.08;;;;;;;;;;5049056;27;98644;-74
2023/07/09 14:27:17;;;;;;;9.38;3.35;;;;;;;;;;5049126;27;100022;-74
2023/07/09 14:29:43;;;;;;;5.05;3.40;;;;;;;;;;5050246;27;98397;-74
2023/07/09 14:32:31;;;;;;;8.15;3.50;;;;;;;;;;5050392;27;98617;-74
2023/07/09 14:34:58;;;;;;;5.88;3.63;;;;;;;;;;5048108;27;100188;-75
2023/07/09 14:37:26;;;;;;;7.93;3.20;;;;;;;;;;5054288;27;98301;-74
2023/07/09 14:39:52;;;;;;;7.40;3.08;;;;;;;;;;5049615;27;99767;-74
2023/07/09 14:42:19;;;;;;;6.93;3.22;;;;;;;;;;5050880;27;98227;-74